Time,TemperatureF,DewpointF,PressureIn,WindDirection,WindDirectionDegrees,WindSpeedMPH,WindSpeedGustMPH,Humidity,HourlyPrecipIn,Conditions,Clouds,dailyrainin,SoftwareType,DateUTC
2013-07-15 00:00:00,70.1,65.4,30.15,SE,134,6.0,10.0,85,0.00,,,0.01,VWS V15.00,2013-07-15 05:00:00,
2013-07-15 00:03:00,69.9,65.2,30.15,SE,134,4.0,5.0,85,0.00,,SCT050,0.00,VWS V14.01,2013-07-15 05:03:00,
2013-07-15 00:08:00,69.8,65.4,30.15,SE,134,4.0,5.0,86,0.00,,SCT050,0.00,VWS V14.01,2013-07-15 05:08:00,
2013-07-15 00:13:00,69.6,65.2,30.15,SE,134,4.0,7.0,86,0.00,,SCT050,0.00,VWS V14.01,2013-07-15 05:13:00,
2013-07-15 00:15:00,70.9,65.5,30.15,SE,134,4.0,9.0,83,0.00,,,0.01,VWS V15.00,2013-07-15 05:15:00,
2013-07-15 00:18:00,69.4,65.0,30.15,SE,134,6.0,6.0,86,0.00,,SCT050,0.00,VWS V14.01,2013-07-15 05:18:00,
2013-07-15 00:23:00,69.1,64.7,30.15,SE,134,4.0,6.0,86,0.00,,SCT050,0.00,VWS V14.01,2013-07-15 05:23:00,
2013-07-15 00:28:00,69.1,65.1,30.15,SE,134,5.0,7.0,87,0.00,,SCT050,0.00,VWS V14.01,2013-07-15 05:28:00,
2013-07-15 00:30:00,70.8,65.7,30.15,SE,134,4.0,7.0,84,0.00,,,0.01,VWS V15.00,2013-07-15 05:30:00,
2013-07-15 00:33:00,68.9,64.9,30.15,SE,134,5.0,6.0,87,0.00,,SCT050,0.00,VWS V14.01,2013-07-15 05:33:00,
2013-07-15 00:38:00,69.1,65.1,30.15,SE,134,4.0,6.0,87,0.00,,SCT050,0.00,VWS V14.01,2013-07-15 05:38:00,
2013-07-15 00:43:00,69.4,65.0,30.15,SE,134,5.0,6.0,86,0.00,,CLR,0.00,VWS V14.01,2013-07-15 05:43:00,
2013-07-15 00:45:00,70.3,65.2,30.15,SE,134,4.0,6.0,84,0.00,,,0.01,VWS V15.00,2013-07-15 05:45:00,
2013-07-15 00:48:00,69.6,65.2,30.15,SE,134,4.0,4.0,86,0.00,,CLR,0.00,VWS V14.01,2013-07-15 05:48:00,
2013-07-15 00:53:00,69.4,65.0,30.15,SE,134,4.0,5.0,86,0.00,,CLR,0.00,VWS V14.01,2013-07-15 05:53:00,
2013-07-15 00:58:00,69.4,65.0,30.15,SE,134,5.0,6.0,86,0.00,,CLR,0.00,VWS V14.01,2013-07-15 05:58:00,
2013-07-15 01:00:00,69.9,65.2,30.15,SE,134,5.0,7.0,85,0.00,,,0.01,VWS V15.00,2013-07-15 06:00:00,
2013-07-15 01:03:00,69.8,65.4,30.16,SE,134,5.0,7.0,86,0.00,,CLR,0.00,VWS V14.01,2013-07-15 06:03:00,
2013-07-15 01:08:00,70.4,65.3,30.16,SE,134,5.0,7.0,84,0.00,,CLR,0.00,VWS V14.01,2013-07-15 06:08:00,
2013-07-15 01:13:00,70.8,65.4,30.16,SE,135,4.0,7.0,83,0.00,,CLR,0.00,VWS V14.01,2013-07-15 06:13:00,
2013-07-15 01:15:00,69.4,65.0,30.15,SE,134,4.0,7.0,86,0.00,,,0.00,VWS V15.00,2013-07-15 06:15:00,
2013-07-15 01:19:00,71.1,65.3,30.15,SE,135,6.0,7.0,82,0.00,,CLR,0.00,VWS V14.01,2013-07-15 06:19:00,
2013-07-15 01:24:00,71.3,65.5,30.15,SE,136,5.0,7.0,82,0.00,,CLR,0.00,VWS V14.01,2013-07-15 06:24:00,
2013-07-15 01:29:00,71.5,65.7,30.15,SE,143,6.0,9.0,82,0.00,,CLR,0.00,VWS V14.01,2013-07-15 06:29:00,
2013-07-15 01:30:00,68.9,64.9,30.15,SE,134,4.0,7.0,87,0.00,,,0.00,VWS V15.00,2013-07-15 06:30:00,
2013-07-15 01:34:00,71.5,65.7,30.15,SE,146,6.0,9.0,82,0.00,,CLR,0.00,VWS V14.01,2013-07-15 06:34:00,
2013-07-15 01:39:00,71.5,65.7,30.15,SSE,149,10.0,10.0,82,0.00,,CLR,0.00,VWS V14.01,2013-07-15 06:39:00,
2013-07-15 01:44:00,71.6,65.8,30.15,SSE,153,9.0,11.0,82,0.00,,CLR,0.00,VWS V14.01,2013-07-15 06:44:00,
2013-07-15 01:45:00,69.4,65.0,30.15,SE,134,4.0,6.0,86,0.00,,,0.00,VWS V15.00,2013-07-15 06:45:00,
2013-07-15 01:49:00,71.8,66.0,30.15,SSE,156,7.0,10.0,82,0.00,,CLR,0.00,VWS V14.01,2013-07-15 06:49:00,
2013-07-15 01:54:00,71.8,65.7,30.15,SSE,156,8.0,11.0,81,0.00,,CLR,0.00,VWS V14.01,2013-07-15 06:54:00,
2013-07-15 01:59:00,71.8,66.0,30.15,SSE,156,8.0,11.0,82,0.00,,CLR,0.00,VWS V14.01,2013-07-15 06:59:00,
2013-07-15 02:00:00,69.6,65.2,30.16,SE,134,4.0,6.0,86,0.00,,,0.00,VWS V15.00,2013-07-15 07:00:00,
2013-07-15 02:04:00,71.5,65.7,30.15,SSE,158,7.0,10.0,82,0.00,,CLR,0.00,VWS V14.01,2013-07-15 07:04:00,
2013-07-15 02:09:00,71.3,65.9,30.15,SSE,158,7.0,10.0,83,0.00,,CLR,0.00,VWS V14.01,2013-07-15 07:09:00,
2013-07-15 02:14:00,71.1,65.7,30.15,SSE,158,10.0,12.0,83,0.00,,CLR,0.00,VWS V14.01,2013-07-15 07:14:00,
2013-07-15 02:15:00,70.9,65.5,30.15,SE,135,5.0,7.0,83,0.00,,,0.00,VWS V15.00,2013-07-15 07:15:00,
2013-07-15 02:19:00,71.1,65.7,30.15,SSE,157,6.0,10.0,83,0.00,,CLR,0.00,VWS V14.01,2013-07-15 07:19:00,
2013-07-15 02:24:00,70.9,65.5,30.15,SSE,158,10.0,11.0,83,0.00,,CLR,0.00,VWS V14.01,2013-07-15 07:24:00,
2013-07-15 02:29:00,70.8,65.7,30.15,SSE,158,9.0,11.0,84,0.00,,CLR,0.00,VWS V14.01,2013-07-15 07:29:00,
2013-07-15 02:30:00,71.5,65.7,30.15,SE,145,5.0,9.0,82,0.00,,,0.00,VWS V15.00,2013-07-15 07:30:00,
2013-07-15 02:34:00,70.6,65.5,30.15,SSE,158,9.0,9.0,84,0.00,,CLR,0.00,VWS V14.01,2013-07-15 07:34:00,
2013-07-15 02:39:00,70.4,65.3,30.15,SSE,158,6.0,9.0,84,0.00,,CLR,0.00,VWS V14.01,2013-07-15 07:39:00,
2013-07-15 02:44:00,70.1,65.4,30.15,SSE,158,5.0,10.0,85,0.00,,SCT120,0.00,VWS V14.01,2013-07-15 07:44:00,
2013-07-15 02:45:00,71.6,65.8,30.15,SSE,155,8.0,11.0,82,0.00,,,0.00,VWS V15.00,2013-07-15 07:45:00,
2013-07-15 02:49:00,70.1,65.4,30.15,SSE,160,4.0,7.0,85,0.00,,SCT120,0.00,VWS V14.01,2013-07-15 07:49:00,
2013-07-15 02:54:00,69.9,65.2,30.15,SSE,160,6.0,7.0,85,0.00,,SCT120,0.00,VWS V14.01,2013-07-15 07:54:00,
2013-07-15 02:59:00,69.8,65.1,30.15,SSE,162,5.0,8.0,85,0.00,,SCT120,0.00,VWS V14.01,2013-07-15 07:59:00,
2013-07-15 03:00:00,71.6,64.4,30.15,SSE,157,6.0,11.0,78,0.00,,,0.00,VWS V15.00,2013-07-15 08:00:00,
2013-07-15 03:05:00,69.8,65.1,30.15,SSE,162,6.0,7.0,85,0.00,,SCT120,0.00,VWS V14.01,2013-07-15 08:05:00,
2013-07-15 03:10:00,69.6,64.9,30.15,SSE,162,6.0,8.0,85,0.00,,SCT120,0.00,VWS V14.01,2013-07-15 08:10:00,
2013-07-15 03:15:00,69.6,64.9,30.15,SSE,162,7.0,8.0,85,0.00,,SCT120,0.00,VWS V14.01,2013-07-15 08:15:00,
2013-07-15 03:20:00,69.6,64.9,30.15,SSE,162,9.0,9.0,85,0.00,,SCT120,0.00,VWS V14.01,2013-07-15 08:20:00,
2013-07-15 03:25:00,69.4,65.0,30.15,SSE,163,7.0,9.0,86,0.00,,SCT120,0.00,VWS V14.01,2013-07-15 08:25:00,
2013-07-15 03:30:00,69.6,64.9,30.15,SSE,163,7.0,10.0,85,0.00,,SCT120,0.00,VWS V14.01,2013-07-15 08:30:00,
2013-07-15 03:35:00,69.6,64.9,30.15,SSE,163,6.0,9.0,85,0.00,,SCT120,0.00,VWS V14.01,2013-07-15 08:35:00,
2013-07-15 03:40:00,69.6,64.9,30.15,SSE,163,6.0,10.0,85,0.00,,SCT120,0.00,VWS V14.01,2013-07-15 08:40:00,
2013-07-15 03:45:00,69.4,64.7,30.15,SSE,163,6.0,10.0,85,0.00,,SCT120,0.00,VWS V14.01,2013-07-15 08:45:00,
2013-07-15 03:50:00,69.4,63.3,30.15,SSE,163,5.0,8.0,81,0.00,,SCT120,0.00,VWS V14.01,2013-07-15 08:50:00,
2013-07-15 03:55:00,69.3,64.6,30.15,SSE,163,6.0,9.0,85,0.00,,SCT120,0.00,VWS V14.01,2013-07-15 08:55:00,
2013-07-15 04:00:00,69.1,64.7,30.15,SSE,163,6.0,9.0,86,0.00,,SCT120,0.00,VWS V14.01,2013-07-15 09:00:00,
2013-07-15 04:05:00,68.9,64.6,30.15,SSE,163,6.0,8.0,86,0.00,,SCT120,0.00,VWS V14.01,2013-07-15 09:05:00,
2013-07-15 04:10:00,68.8,64.4,30.15,SSE,163,8.0,10.0,86,0.00,,SCT120,0.00,VWS V14.01,2013-07-15 09:10:00,
2013-07-15 04:15:00,68.6,64.6,30.15,SSE,163,7.0,10.0,87,0.00,,SCT120,0.00,VWS V14.01,2013-07-15 09:15:00,
2013-07-15 04:20:00,68.6,64.6,30.15,SSE,163,9.0,10.0,87,0.00,,SCT120,0.00,VWS V14.01,2013-07-15 09:20:00,
2013-07-15 04:25:00,68.6,64.6,30.15,SSE,164,7.0,10.0,87,0.00,,SCT120,0.00,VWS V14.01,2013-07-15 09:25:00,
2013-07-15 04:30:00,68.4,64.4,30.15,SSE,163,7.0,10.0,87,0.00,,SCT120,0.00,VWS V14.01,2013-07-15 09:30:00,
2013-07-15 04:35:00,68.4,64.4,30.16,SSE,163,9.0,9.0,87,0.00,,SCT120,0.00,VWS V14.01,2013-07-15 09:35:00,
2013-07-15 04:40:00,68.3,64.3,30.16,SSE,164,7.0,11.0,87,0.00,,SCT120,0.00,VWS V14.01,2013-07-15 09:40:00,
2013-07-15 04:45:00,68.4,64.4,30.16,SSE,163,8.0,11.0,87,0.00,,SCT120,0.00,VWS V14.01,2013-07-15 09:45:00,
2013-07-15 04:50:00,68.4,64.4,30.16,SSE,163,6.0,10.0,87,0.00,,SCT120,0.00,VWS V14.01,2013-07-15 09:50:00,
2013-07-15 04:55:00,68.3,64.3,30.16,SSE,163,7.0,10.0,87,0.00,,SCT120,0.00,VWS V14.01,2013-07-15 09:55:00,
2013-07-15 05:00:00,68.3,64.3,30.16,SSE,163,7.0,10.0,87,0.00,,SCT120,0.00,VWS V14.01,2013-07-15 10:00:00,
2013-07-15 05:05:00,68.1,64.1,30.16,SSE,163,7.0,9.0,87,0.00,,SCT120,0.00,VWS V14.01,2013-07-15 10:05:00,
2013-07-15 05:10:00,67.9,63.9,30.16,SSE,163,6.0,9.0,87,0.00,,SCT120,0.00,VWS V14.01,2013-07-15 10:10:00,
2013-07-15 05:15:00,67.9,63.9,30.16,SSE,163,5.0,9.0,87,0.00,,SCT120,0.00,VWS V14.01,2013-07-15 10:15:00,
2013-07-15 05:20:00,67.9,63.9,30.16,SSE,161,7.0,10.0,87,0.00,,SCT120,0.00,VWS V14.01,2013-07-15 10:20:00,
2013-07-15 05:25:00,67.9,63.9,30.16,SSE,160,7.0,10.0,87,0.00,,SCT120,0.00,VWS V14.01,2013-07-15 10:25:00,
2013-07-15 05:30:00,68.1,64.1,30.16,SSE,160,6.0,10.0,87,0.00,,SCT120,0.00,VWS V14.01,2013-07-15 10:30:00,
2013-07-15 05:35:00,68.1,64.1,30.17,SSE,160,9.0,9.0,87,0.00,,SCT120,0.00,VWS V14.01,2013-07-15 10:35:00,
2013-07-15 05:40:00,67.9,63.9,30.17,SSE,160,5.0,10.0,87,0.00,,SCT120,0.00,VWS V14.01,2013-07-15 10:40:00,
2013-07-15 05:45:00,68.4,64.4,30.16,SSE,163,9.0,11.0,87,0.00,,,0.00,VWS V15.00,2013-07-15 10:45:00,
2013-07-15 05:46:00,67.6,63.3,30.17,SSE,160,6.0,10.0,86,0.00,,SCT120,0.00,VWS V14.01,2013-07-15 10:46:00,
2013-07-15 05:51:00,66.8,63.1,30.17,SSE,161,6.0,6.0,88,0.00,,SCT120,0.00,VWS V14.01,2013-07-15 10:51:00,
2013-07-15 05:56:00,66.3,63.0,30.17,SSE,161,6.0,6.0,89,0.00,,SCT120,0.00,VWS V14.01,2013-07-15 10:56:00,
2013-07-15 06:00:00,68.3,64.3,30.16,SSE,163,9.0,10.0,87,0.00,,,0.00,VWS V15.00,2013-07-15 11:00:00,
2013-07-15 06:01:00,66.1,63.1,30.18,SSE,160,4.0,6.0,90,0.00,,SCT120,0.00,VWS V14.01,2013-07-15 11:01:00,
2013-07-15 06:06:00,66.0,63.0,30.18,SSE,160,5.0,9.0,90,0.00,,,0.00,VWS V14.01,2013-07-15 11:06:00,
2013-07-15 06:11:00,65.8,63.1,30.18,SSE,159,3.0,10.0,91,0.00,,,0.00,VWS V14.01,2013-07-15 11:11:00,
2013-07-15 06:15:00,67.9,63.9,30.16,SSE,162,9.0,11.0,87,0.00,,,0.00,VWS V15.00,2013-07-15 11:15:00,
2013-07-15 06:16:00,65.6,62.9,30.18,SSE,159,3.0,10.0,91,0.00,,,0.00,VWS V14.01,2013-07-15 11:16:00,
2013-07-15 06:21:00,65.5,62.8,30.18,SSE,159,6.0,7.0,91,0.00,,,0.00,VWS V14.01,2013-07-15 11:21:00,
2013-07-15 06:26:00,65.3,62.9,30.18,SSE,159,4.0,7.0,92,0.00,,,0.00,VWS V14.01,2013-07-15 11:26:00,
2013-07-15 06:30:00,68.1,64.1,30.17,SSE,160,6.0,10.0,87,0.00,,,0.00,VWS V15.00,2013-07-15 11:30:00,
2013-07-15 06:31:00,65.3,62.9,30.18,SSE,159,4.0,7.0,92,0.00,,,0.00,VWS V14.01,2013-07-15 11:31:00,
2013-07-15 06:36:00,65.3,62.9,30.18,SSE,159,6.0,6.0,92,0.00,,,0.00,VWS V14.01,2013-07-15 11:36:00,
2013-07-15 06:41:00,65.3,63.2,30.18,SSE,159,5.0,7.0,93,0.00,,,0.00,VWS V14.01,2013-07-15 11:41:00,
2013-07-15 06:45:00,67.4,63.1,30.17,SSE,160,4.0,10.0,86,0.00,,,0.00,VWS V15.00,2013-07-15 11:45:00,
2013-07-15 06:46:00,66.1,64.0,30.18,SSE,159,4.0,8.0,93,0.00,,,0.00,VWS V14.01,2013-07-15 11:46:00,
2013-07-15 06:51:00,66.4,64.0,30.18,SSE,159,5.0,7.0,92,0.00,,,0.00,VWS V14.01,2013-07-15 11:51:00,
2013-07-15 06:56:00,66.3,63.9,30.18,SSE,159,4.0,7.0,92,0.00,,,0.00,VWS V14.01,2013-07-15 11:56:00,
2013-07-15 07:00:00,66.1,63.1,30.18,SSE,160,5.0,6.0,90,0.00,,,0.00,VWS V15.00,2013-07-15 12:00:00,
2013-07-15 07:01:00,66.6,64.2,30.19,SSE,159,5.0,7.0,92,0.00,,,0.00,VWS V14.01,2013-07-15 12:01:00,
2013-07-15 07:06:00,66.6,64.2,30.19,SSE,159,5.0,8.0,92,0.00,,,0.00,VWS V14.01,2013-07-15 12:06:00,
2013-07-15 07:11:00,66.6,64.2,30.19,SSE,159,6.0,8.0,92,0.00,,,0.00,VWS V14.01,2013-07-15 12:11:00,
2013-07-15 07:15:00,65.6,62.9,30.18,SSE,159,3.0,10.0,91,0.00,,,0.00,VWS V15.00,2013-07-15 12:15:00,
2013-07-15 07:16:00,66.8,64.4,30.20,SSE,159,5.0,8.0,92,0.00,,,0.00,VWS V14.01,2013-07-15 12:16:00,
2013-07-15 07:21:00,67.6,65.2,30.20,SSE,159,7.0,7.0,92,0.00,,,0.00,VWS V14.01,2013-07-15 12:21:00,
2013-07-15 07:26:00,68.6,65.2,30.20,SSE,159,6.0,7.0,89,0.00,,,0.00,VWS V14.01,2013-07-15 12:26:00,
2013-07-15 07:30:00,65.3,62.9,30.18,SSE,159,3.0,7.0,92,0.00,,,0.00,VWS V15.00,2013-07-15 12:30:00,
2013-07-15 07:31:00,69.4,65.0,30.19,SSE,159,5.0,7.0,86,0.00,,,0.00,VWS V14.01,2013-07-15 12:31:00,
2013-07-15 07:36:00,70.1,65.1,30.19,SSE,158,6.0,9.0,84,0.00,,CLR,0.00,VWS V14.01,2013-07-15 12:36:00,
2013-07-15 07:41:00,70.6,64.8,30.19,SSE,158,7.0,10.0,82,0.00,,CLR,0.00,VWS V14.01,2013-07-15 12:41:00,
2013-07-15 07:45:00,66.1,64.0,30.18,SSE,159,5.0,8.0,93,0.00,,,0.00,VWS V15.00,2013-07-15 12:45:00,
2013-07-15 07:46:00,70.9,64.8,30.19,SSE,158,9.0,10.0,81,0.00,,CLR,0.00,VWS V14.01,2013-07-15 12:46:00,
2013-07-15 07:51:00,71.1,65.0,30.19,SSE,158,4.0,9.0,81,0.00,,CLR,0.00,VWS V14.01,2013-07-15 12:51:00,
2013-07-15 07:56:00,71.5,65.0,30.19,SSE,158,6.0,9.0,80,0.00,,CLR,0.00,VWS V14.01,2013-07-15 12:56:00,
2013-07-15 08:00:00,66.6,64.2,30.19,SSE,159,5.0,7.0,92,0.00,,,0.00,VWS V15.00,2013-07-15 13:00:00,
2013-07-15 08:01:00,71.6,65.5,30.19,SSE,158,9.0,9.0,81,0.00,,CLR,0.00,VWS V14.01,2013-07-15 13:01:00,
2013-07-15 08:06:00,72.0,65.5,30.19,SSE,157,6.0,9.0,80,0.00,,CLR,0.00,VWS V14.01,2013-07-15 13:06:00,
2013-07-15 08:11:00,72.1,65.6,30.19,SSE,157,6.0,9.0,80,0.00,,CLR,0.00,VWS V14.01,2013-07-15 13:11:00,
2013-07-15 08:15:00,66.8,64.4,30.20,SSE,159,4.0,8.0,92,0.00,,,0.00,VWS V15.00,2013-07-15 13:15:00,
2013-07-15 08:16:00,72.5,65.6,30.19,SSE,163,8.0,9.0,79,0.00,,CLR,0.00,VWS V14.01,2013-07-15 13:16:00,
2013-07-15 08:22:00,72.8,65.2,30.19,SSE,165,4.0,9.0,77,0.00,,CLR,0.00,VWS V14.01,2013-07-15 13:22:00,
2013-07-15 08:27:00,73.2,65.6,30.19,SSE,164,4.0,9.0,77,0.00,,CLR,0.00,VWS V14.01,2013-07-15 13:27:00,
2013-07-15 08:30:00,69.6,65.2,30.19,SSE,159,6.0,7.0,86,0.00,,,0.00,VWS V15.00,2013-07-15 13:30:00,
2013-07-15 08:32:00,73.5,65.9,30.19,SSE,163,6.0,6.0,77,0.00,,CLR,0.00,VWS V14.01,2013-07-15 13:32:00,
2013-07-15 08:37:00,73.9,65.9,30.19,South,170,6.0,10.0,76,0.00,,CLR,0.00,VWS V14.01,2013-07-15 13:37:00,
2013-07-15 08:42:00,74.2,65.8,30.19,South,175,8.0,11.0,75,0.00,,CLR,0.00,VWS V14.01,2013-07-15 13:42:00,
2013-07-15 08:45:00,70.9,64.8,30.19,SSE,158,8.0,10.0,81,0.00,,,0.00,VWS V15.00,2013-07-15 13:45:00,
2013-07-15 08:47:00,74.6,65.8,30.19,South,173,6.0,6.0,74,0.00,,CLR,0.00,VWS V14.01,2013-07-15 13:47:00,
2013-07-15 08:52:00,74.9,65.7,30.19,South,171,11.0,11.0,73,0.00,,CLR,0.00,VWS V14.01,2013-07-15 13:52:00,
2013-07-15 08:57:00,75.3,66.1,30.19,South,170,11.0,13.0,73,0.00,,CLR,0.00,VWS V14.01,2013-07-15 13:57:00,
2013-07-15 09:00:00,71.6,65.5,30.19,SSE,158,9.0,9.0,81,0.00,,,0.00,VWS V15.00,2013-07-15 14:00:00,
2013-07-15 09:02:00,75.4,66.2,30.19,SSE,168,8.0,8.0,73,0.00,,CLR,0.00,VWS V14.01,2013-07-15 14:02:00,
2013-07-15 09:07:00,75.6,66.3,30.19,SSE,163,10.0,11.0,73,0.00,,CLR,0.00,VWS V14.01,2013-07-15 14:07:00,
2013-07-15 09:12:00,76.1,66.4,30.19,South,170,7.0,11.0,72,0.00,,CLR,0.00,VWS V14.01,2013-07-15 14:12:00,
2013-07-15 09:15:00,72.5,65.6,30.19,SSE,160,9.0,9.0,79,0.00,,,0.00,VWS V15.00,2013-07-15 14:15:00,
2013-07-15 09:17:00,76.8,66.7,30.20,South,172,6.0,10.0,71,0.00,,CLR,0.00,VWS V14.01,2013-07-15 14:17:00,
2013-07-15 09:22:00,77.4,66.4,30.20,SSE,161,10.0,12.0,69,0.00,,CLR,0.00,VWS V14.01,2013-07-15 14:22:00,
2013-07-15 09:27:00,77.6,67.1,30.20,South,172,6.0,12.0,70,0.00,,CLR,0.00,VWS V14.01,2013-07-15 14:27:00,
2013-07-15 09:30:00,73.5,65.9,30.19,SSE,163,5.0,9.0,77,0.00,,,0.00,VWS V15.00,2013-07-15 14:30:00,
2013-07-15 09:32:00,77.9,66.9,30.20,SSE,167,8.0,10.0,69,0.00,,CLR,0.00,VWS V14.01,2013-07-15 14:32:00,
2013-07-15 09:37:00,78.1,66.7,30.20,SSE,167,4.0,10.0,68,0.00,,CLR,0.00,VWS V14.01,2013-07-15 14:37:00,
2013-07-15 09:42:00,78.6,66.7,30.20,South,175,9.0,11.0,67,0.00,,CLR,0.00,VWS V14.01,2013-07-15 14:42:00,
2013-07-15 09:45:00,74.6,65.8,30.19,South,173,6.0,11.0,74,0.00,,,0.00,VWS V15.00,2013-07-15 14:45:00,
2013-07-15 09:47:00,78.6,66.3,30.20,South,170,10.0,12.0,66,0.00,,CLR,0.00,VWS V14.01,2013-07-15 14:47:00,
2013-07-15 09:52:00,78.8,66.1,30.20,South,179,11.0,12.0,65,0.00,,CLR,0.00,VWS V14.01,2013-07-15 14:52:00,
2013-07-15 09:57:00,79.0,66.2,30.20,SSE,151,9.0,12.0,65,0.00,,CLR,0.00,VWS V14.01,2013-07-15 14:57:00,
2013-07-15 10:00:00,75.4,66.2,30.19,SSE,168,7.0,13.0,73,0.00,,,0.00,VWS V15.00,2013-07-15 15:00:00,
2013-07-15 10:02:00,79.4,67.5,30.20,SSE,156,9.0,9.0,67,0.00,,CLR,0.00,VWS V14.01,2013-07-15 15:02:00,
2013-07-15 10:10:00,79.9,67.1,30.20,SSE,165,6.0,12.0,65,0.00,,CLR,0.00,VWS V14.01,2013-07-15 15:10:00,
2013-07-15 10:15:00,76.8,66.7,30.20,South,173,10.0,11.0,71,0.00,,,0.00,VWS V15.00,2013-07-15 15:15:00,
2013-07-15 10:17:00,80.7,67.4,30.20,SSE,161,7.0,9.0,64,0.00,,CLR,0.00,VWS V14.01,2013-07-15 15:17:00,
2013-07-15 10:22:00,81.1,67.3,30.20,SSW,193,9.0,12.0,63,0.00,,CLR,0.00,VWS V14.01,2013-07-15 15:22:00,
2013-07-15 10:28:00,81.8,68.0,30.20,South,190,11.0,12.0,63,0.00,,CLR,0.00,VWS V14.01,2013-07-15 15:28:00,
2013-07-15 10:30:00,77.7,66.7,30.20,SSE,168,6.0,12.0,69,0.00,,,0.00,VWS V15.00,2013-07-15 15:30:00,
2013-07-15 10:35:00,82.6,66.8,30.19,SSW,200,6.0,14.0,59,0.00,,CLR,0.00,VWS V14.01,2013-07-15 15:35:00,
2013-07-15 10:41:00,82.6,66.8,30.19,South,179,8.0,14.0,59,0.00,,CLR,0.00,VWS V14.01,2013-07-15 15:41:00,
2013-07-15 10:45:00,78.6,66.3,30.20,SSE,165,9.0,13.0,66,0.00,,,0.00,VWS V15.00,2013-07-15 15:45:00,
2013-07-15 10:46:00,83.0,67.2,30.19,SSW,196,11.0,14.0,59,0.00,,CLR,0.00,VWS V14.01,2013-07-15 15:46:00,
2013-07-15 10:51:00,83.6,67.3,30.19,SSW,200,7.0,12.0,58,0.00,,CLR,0.00,VWS V14.01,2013-07-15 15:51:00,
2013-07-15 10:56:00,83.8,66.4,30.19,South,182,7.0,13.0,56,0.00,,CLR,0.00,VWS V14.01,2013-07-15 15:56:00,
2013-07-15 11:00:00,79.4,66.6,30.20,SSE,156,4.0,12.0,65,0.00,,,0.00,VWS V15.00,2013-07-15 16:00:00,
2013-07-15 11:01:00,84.0,67.1,30.19,South,184,7.0,13.0,57,0.00,,CLR,0.00,VWS V14.01,2013-07-15 16:01:00,
2013-07-15 11:07:00,83.8,66.4,30.19,South,173,10.0,15.0,56,0.00,,CLR,0.00,VWS V14.01,2013-07-15 16:07:00,
2013-07-15 11:12:00,84.0,66.6,30.19,SSE,165,14.0,15.0,56,0.00,,CLR,0.00,VWS V14.01,2013-07-15 16:12:00,
2013-07-15 11:15:00,80.5,67.2,30.20,SSE,162,5.0,12.0,64,0.00,,,0.00,VWS V15.00,2013-07-15 16:15:00,
2013-07-15 11:17:00,84.3,66.4,30.19,SW,218,6.0,11.0,55,0.00,,CLR,0.00,VWS V14.01,2013-07-15 16:17:00,
2013-07-15 11:22:00,84.9,66.9,30.19,South,190,6.0,12.0,55,0.00,,CLR,0.00,VWS V14.01,2013-07-15 16:22:00,
2013-07-15 11:27:00,85.5,65.9,30.19,SSW,213,5.0,13.0,52,0.00,,CLR,0.00,VWS V14.01,2013-07-15 16:27:00,
2013-07-15 11:30:00,82.4,67.6,30.19,SSW,194,10.0,13.0,61,0.00,,,0.00,VWS V15.00,2013-07-15 16:30:00,
2013-07-15 11:32:00,85.5,65.3,30.19,South,169,9.0,10.0,51,0.00,,CLR,0.00,VWS V14.01,2013-07-15 16:32:00,
2013-07-15 11:37:00,85.5,65.3,30.19,South,191,12.0,14.0,51,0.00,,CLR,0.00,VWS V14.01,2013-07-15 16:37:00,
2013-07-15 11:44:00,85.7,65.5,30.19,SSE,165,7.0,15.0,51,0.00,,CLR,0.00,VWS V14.01,2013-07-15 16:44:00,
2013-07-15 11:45:00,83.0,67.2,30.19,SSW,194,9.0,14.0,59,0.00,,,0.00,VWS V15.00,2013-07-15 16:45:00,
2013-07-15 11:51:00,85.3,65.1,30.19,South,187,8.0,15.0,51,0.00,,CLR,0.00,VWS V14.01,2013-07-15 16:51:00,
2013-07-15 11:58:00,85.9,65.1,30.19,South,191,10.0,15.0,50,0.00,,CLR,0.00,VWS V14.01,2013-07-15 16:58:00,
2013-07-15 12:00:00,84.0,67.1,30.19,South,184,7.0,13.0,57,0.00,,,0.00,VWS V15.00,2013-07-15 17:00:00,
2013-07-15 12:04:00,86.1,65.3,30.19,SSE,163,15.0,15.0,50,0.00,,CLR,0.00,VWS V14.01,2013-07-15 17:04:00,
2013-07-15 12:11:00,85.9,66.2,30.19,South,184,12.0,16.0,52,0.00,,CLR,0.00,VWS V14.01,2013-07-15 17:11:00,
2013-07-15 12:15:00,84.3,66.4,30.19,SW,220,10.0,15.0,55,0.00,,,0.00,VWS V15.00,2013-07-15 17:15:00,
2013-07-15 12:16:00,86.1,65.9,30.18,South,186,13.0,16.0,51,0.00,,CLR,0.00,VWS V14.01,2013-07-15 17:16:00,
2013-07-15 12:21:00,86.3,65.5,30.18,SSW,196,15.0,16.0,50,0.00,,CLR,0.00,VWS V14.01,2013-07-15 17:21:00,
2013-07-15 12:27:00,87.0,65.0,30.18,SSW,193,11.0,16.0,48,0.00,,CLR,0.00,VWS V14.01,2013-07-15 17:27:00,
2013-07-15 12:30:00,85.3,66.2,30.19,South,184,7.0,14.0,53,0.00,,,0.00,VWS V15.00,2013-07-15 17:30:00,
2013-07-15 12:32:00,86.7,64.1,30.18,South,182,12.0,14.0,47,0.00,,CLR,0.00,VWS V14.01,2013-07-15 17:32:00,
2013-07-15 12:37:00,86.5,65.1,30.18,SSW,205,7.0,14.0,49,0.00,,CLR,0.00,VWS V14.01,2013-07-15 17:37:00,
2013-07-15 12:44:00,87.8,63.8,30.18,SSW,196,11.0,14.0,45,0.00,,SCT050,0.00,VWS V14.01,2013-07-15 17:44:00,
2013-07-15 12:45:00,85.7,64.9,30.19,South,174,9.0,15.0,50,0.00,,,0.00,VWS V15.00,2013-07-15 17:45:00,
2013-07-15 12:49:00,88.0,64.0,30.18,South,179,7.0,15.0,45,0.00,,SCT050,0.00,VWS V14.01,2013-07-15 17:49:00,
2013-07-15 12:55:00,87.4,65.3,30.18,South,186,5.0,15.0,48,0.00,,SCT050,0.00,VWS V14.01,2013-07-15 17:55:00,
2013-07-15 13:00:00,85.9,64.0,30.18,SSE,167,6.0,15.0,48,0.00,,SCT050,0.00,VWS V14.01,2013-07-15 18:00:00,
2013-07-15 13:05:00,85.7,64.9,30.18,South,185,13.0,15.0,50,0.00,,SCT060,0.00,VWS V14.01,2013-07-15 18:05:00,
2013-07-15 13:12:00,85.9,64.0,30.18,South,186,14.0,15.0,48,0.00,,SCT060,0.00,VWS V14.01,2013-07-15 18:12:00,
2013-07-15 13:15:00,86.1,65.3,30.18,South,185,12.0,16.0,50,0.00,,,0.00,VWS V15.00,2013-07-15 18:15:00,
2013-07-15 13:17:00,86.7,64.1,30.18,SSW,193,7.0,9.0,47,0.00,,SCT060,0.00,VWS V14.01,2013-07-15 18:17:00,
2013-07-15 13:22:00,87.8,65.1,30.18,South,191,6.0,15.0,47,0.00,,SCT060,0.00,VWS V14.01,2013-07-15 18:22:00,
2013-07-15 13:27:00,87.8,65.1,30.18,South,180,13.0,15.0,47,0.00,,SCT060,0.00,VWS V14.01,2013-07-15 18:27:00,
2013-07-15 13:30:00,86.7,64.7,30.18,South,184,13.0,17.0,48,0.00,,,0.00,VWS V15.00,2013-07-15 18:30:00,
2013-07-15 13:32:00,87.4,65.3,30.17,SSE,166,11.0,11.0,48,0.00,,SCT060,0.00,VWS V14.01,2013-07-15 18:32:00,
2013-07-15 13:37:00,87.8,65.1,30.17,SSE,156,13.0,15.0,47,0.00,,SCT060,0.00,VWS V14.01,2013-07-15 18:37:00,
2013-07-15 13:43:00,88.0,64.0,30.17,South,173,13.0,16.0,45,0.00,,SCT050,0.00,VWS V14.01,2013-07-15 18:43:00,
2013-07-15 13:45:00,88.0,65.3,30.18,SSW,202,15.0,17.0,47,0.00,,,0.00,VWS V15.00,2013-07-15 18:45:00,
2013-07-15 13:48:00,87.8,65.7,30.17,South,185,10.0,16.0,48,0.00,,SCT050,0.00,VWS V14.01,2013-07-15 18:48:00,
2013-07-15 13:53:00,87.0,65.6,30.17,SSE,150,10.0,16.0,49,0.00,,SCT050,0.00,VWS V14.01,2013-07-15 18:53:00,
2013-07-15 13:58:00,87.6,67.2,30.17,SSE,153,3.0,16.0,51,0.00,,SCT050,0.00,VWS V14.01,2013-07-15 18:58:00,
2013-07-15 14:00:00,85.5,63.6,30.18,South,174,6.0,15.0,48,0.00,,,0.00,VWS V15.00,2013-07-15 19:00:00,
2013-07-15 14:03:00,88.2,66.1,30.17,SSE,163,13.0,18.0,48,0.00,,SCT049,0.00,VWS V14.01,2013-07-15 19:03:00,
2013-07-15 14:11:00,87.6,65.5,30.17,SSE,162,7.0,18.0,48,0.00,,SCT049,0.00,VWS V14.01,2013-07-15 19:11:00,
2013-07-15 14:15:00,86.5,63.9,30.18,SSW,194,9.0,15.0,47,0.00,,,0.00,VWS V15.00,2013-07-15 19:15:00,
2013-07-15 14:16:00,87.0,65.0,30.17,SSW,192,11.0,18.0,48,0.00,,SCT049,0.00,VWS V14.01,2013-07-15 19:16:00,
2013-07-15 14:22:00,87.0,65.0,30.17,SSE,157,13.0,16.0,48,0.00,,SCT049,0.00,VWS V14.01,2013-07-15 19:22:00,
2013-07-15 14:27:00,85.1,65.5,30.17,South,182,9.0,16.0,52,0.00,,SCT049,0.00,VWS V14.01,2013-07-15 19:27:00,
2013-07-15 14:30:00,87.2,65.1,30.17,SSE,150,7.0,16.0,48,0.00,,,0.00,VWS V15.00,2013-07-15 19:30:00,
2013-07-15 14:32:00,86.3,65.5,30.17,SSE,165,14.0,15.0,50,0.00,,SCT049,0.00,VWS V14.01,2013-07-15 19:32:00,
2013-07-15 14:38:00,86.5,66.2,30.17,SSE,149,12.0,16.0,51,0.00,,SCT049,0.00,VWS V14.01,2013-07-15 19:38:00,
2013-07-15 14:43:00,87.0,67.3,30.17,SE,145,10.0,16.0,52,0.00,,SCT048,0.00,VWS V14.01,2013-07-15 19:43:00,
2013-07-15 14:45:00,87.6,64.3,30.17,SSE,165,16.0,16.0,46,0.00,,,0.00,VWS V15.00,2013-07-15 19:45:00,
2013-07-15 14:48:00,88.2,66.1,30.16,SE,138,12.0,13.0,48,0.00,,SCT048,0.00,VWS V14.01,2013-07-15 19:48:00,
2013-07-15 14:54:00,88.2,66.1,30.16,SE,140,9.0,19.0,48,0.00,,SCT048,0.00,VWS V14.01,2013-07-15 19:54:00,
2013-07-15 14:59:00,88.6,64.6,30.16,South,175,14.0,19.0,45,0.00,,SCT048,0.00,VWS V14.01,2013-07-15 19:59:00,
2013-07-15 15:00:00,88.0,64.0,30.17,SSE,161,10.0,18.0,45,0.00,,,0.00,VWS V15.00,2013-07-15 20:00:00,
2013-07-15 15:04:00,88.6,64.6,30.16,South,171,11.0,15.0,45,0.00,,SCT065,0.00,VWS V14.01,2013-07-15 20:04:00,
2013-07-15 15:09:00,87.8,65.1,30.16,SSE,168,14.0,17.0,47,0.00,,SCT065,0.00,VWS V14.01,2013-07-15 20:09:00,
2013-07-15 15:15:00,86.5,64.5,30.16,SSE,168,9.0,17.0,48,0.00,,SCT065,0.00,VWS V14.01,2013-07-15 20:15:00,
2013-07-15 15:20:00,87.4,64.1,30.16,SSE,168,10.0,11.0,46,0.00,,SCT065,0.00,VWS V14.01,2013-07-15 20:20:00,
2013-07-15 15:26:00,87.6,63.7,30.16,South,188,7.0,15.0,45,0.00,,SCT065,0.00,VWS V14.01,2013-07-15 20:26:00,
2013-07-15 15:30:00,86.1,64.7,30.17,SSE,168,14.0,18.0,49,0.00,,,0.00,VWS V15.00,2013-07-15 20:30:00,
2013-07-15 15:31:00,88.2,64.2,30.16,South,187,11.0,17.0,45,0.00,,SCT065,0.00,VWS V14.01,2013-07-15 20:31:00,
2013-07-15 15:36:00,87.8,64.5,30.16,South,191,8.0,15.0,46,0.00,,SCT065,0.00,VWS V14.01,2013-07-15 20:36:00,
2013-07-15 15:41:00,88.0,64.7,30.16,SSE,152,13.0,15.0,46,0.00,,SCT065,0.00,VWS V14.01,2013-07-15 20:41:00,
2013-07-15 15:45:00,88.0,64.6,30.16,SSE,153,10.0,16.0,46,0.00,,,0.00,VWS V15.00,2013-07-15 20:45:00,
2013-07-15 15:46:00,87.6,63.7,30.16,SSW,199,9.0,20.0,45,0.00,,SCT065,0.00,VWS V14.01,2013-07-15 20:46:00,
2013-07-15 15:51:00,87.6,66.1,30.16,SSE,156,10.0,13.0,49,0.00,,SCT065,0.00,VWS V14.01,2013-07-15 20:51:00,
2013-07-15 15:57:00,87.6,65.5,30.16,SSE,151,13.0,13.0,48,0.00,,SCT065,0.00,VWS V14.01,2013-07-15 20:57:00,
2013-07-15 16:00:00,88.8,64.1,30.16,South,184,12.0,19.0,44,0.00,,,0.00,VWS V15.00,2013-07-15 21:00:00,
2013-07-15 16:02:00,88.2,64.8,30.15,SSE,167,8.0,10.0,46,0.00,,SCT065,0.00,VWS V14.01,2013-07-15 21:02:00,
2013-07-15 16:08:00,87.8,65.7,30.15,SSE,159,13.0,17.0,48,0.00,,SCT065,0.00,VWS V14.01,2013-07-15 21:08:00,
2013-07-15 16:13:00,87.2,65.1,30.15,SSE,158,16.0,17.0,48,0.00,,SCT065,0.00,VWS V14.01,2013-07-15 21:13:00,
2013-07-15 16:15:00,86.7,64.1,30.16,SSE,159,3.0,17.0,47,0.00,,,0.00,VWS V15.00,2013-07-15 21:15:00,
2013-07-15 16:18:00,87.2,65.1,30.15,South,170,9.0,14.0,48,0.00,,SCT065,0.00,VWS V14.01,2013-07-15 21:18:00,
2013-07-15 16:23:00,86.3,64.3,30.15,SSE,166,7.0,14.0,48,0.00,,SCT065,0.00,VWS V14.01,2013-07-15 21:23:00,
2013-07-15 16:28:00,86.7,67.0,30.15,SE,143,13.0,15.0,52,0.00,,SCT065,0.00,VWS V14.01,2013-07-15 21:28:00,
2013-07-15 16:30:00,88.2,64.2,30.16,SSW,208,11.0,17.0,45,0.00,,,0.00,VWS V15.00,2013-07-15 21:30:00,
2013-07-15 16:34:00,87.8,66.3,30.15,South,170,13.0,18.0,49,0.00,,SCT065,0.00,VWS V14.01,2013-07-15 21:34:00,
2013-07-15 16:40:00,88.0,65.3,30.15,South,178,10.0,18.0,47,0.00,,SCT065,0.00,VWS V14.01,2013-07-15 21:40:00,
2013-07-15 16:45:00,88.0,64.0,30.15,South,183,12.0,18.0,45,0.00,,SCT070,0.00,VWS V14.01,2013-07-15 21:45:00,
2013-07-15 16:50:00,88.0,65.3,30.15,SSE,162,12.0,16.0,47,0.00,,SCT070,0.00,VWS V14.01,2013-07-15 21:50:00,
2013-07-15 16:55:00,88.0,65.3,30.15,South,180,4.0,17.0,47,0.00,,SCT070,0.00,VWS V14.01,2013-07-15 21:55:00,
2013-07-15 17:00:00,88.2,64.8,30.15,SSE,168,10.0,15.0,46,0.00,,,0.00,VWS V15.00,2013-07-15 22:00:00,
2013-07-15 17:01:00,88.2,64.8,30.15,South,170,10.0,17.0,46,0.00,,SCT060,0.00,VWS V14.01,2013-07-15 22:01:00,
2013-07-15 17:06:00,87.8,65.1,30.15,SSE,164,15.0,16.0,47,0.00,,SCT060,0.00,VWS V14.01,2013-07-15 22:06:00,
2013-07-15 17:12:00,87.2,64.5,30.15,SSE,166,9.0,16.0,47,0.00,,SCT060,0.00,VWS V14.01,2013-07-15 22:12:00,
2013-07-15 17:15:00,87.2,64.5,30.15,South,180,12.0,17.0,47,0.00,,,0.00,VWS V15.00,2013-07-15 22:15:00,
2013-07-15 17:18:00,87.2,65.1,30.15,SSE,166,8.0,12.0,48,0.00,,SCT060,0.00,VWS V14.01,2013-07-15 22:18:00,
2013-07-15 17:23:00,87.4,64.7,30.15,South,187,8.0,14.0,47,0.00,,SCT060,0.00,VWS V14.01,2013-07-15 22:23:00,
2013-07-15 17:28:00,87.0,63.7,30.15,SSE,163,13.0,14.0,46,0.00,,SCT060,0.00,VWS V14.01,2013-07-15 22:28:00,
2013-07-15 17:30:00,87.4,65.9,30.15,SE,139,14.0,15.0,49,0.00,,,0.00,VWS V15.00,2013-07-15 22:30:00,
2013-07-15 17:34:00,86.3,63.7,30.14,South,182,10.0,16.0,47,0.00,,SCT060,0.00,VWS V14.01,2013-07-15 22:34:00,
2013-07-15 17:39:00,86.5,63.9,30.14,South,189,6.0,16.0,47,0.00,,SCT060,0.00,VWS V14.01,2013-07-15 22:39:00,
2013-07-15 17:44:00,86.5,65.1,30.14,SSE,147,13.0,16.0,49,0.00,,SCT050,0.00,VWS V14.01,2013-07-15 22:44:00,
2013-07-15 17:45:00,88.0,64.0,30.15,SSE,168,11.0,18.0,45,0.00,,,0.00,VWS V15.00,2013-07-15 22:45:00,
2013-07-15 17:49:00,86.1,65.3,30.14,SE,145,12.0,13.0,50,0.00,,SCT050,0.00,VWS V14.01,2013-07-15 22:49:00,
2013-07-15 17:54:00,85.9,65.7,30.14,SSE,157,9.0,13.0,51,0.00,,SCT050,0.00,VWS V14.01,2013-07-15 22:54:00,
2013-07-15 18:00:00,85.7,66.1,30.14,SSE,165,10.0,13.0,52,0.00,,SCT050,0.00,VWS V14.01,2013-07-15 23:00:00,
2013-07-15 18:05:00,85.3,66.8,30.14,SSE,151,15.0,15.0,54,0.00,,SCT070,0.00,VWS V14.01,2013-07-15 23:05:00,
2013-07-15 18:15:00,84.9,65.9,30.14,SSE,157,9.0,16.0,53,0.00,,SCT070,0.00,VWS V14.01,2013-07-15 23:15:00,
2013-07-15 18:20:00,84.9,65.9,30.14,SE,142,10.0,12.0,53,0.00,,SCT070,0.00,VWS V14.01,2013-07-15 23:20:00,
2013-07-15 18:28:00,84.7,66.2,30.14,SSE,158,11.0,12.0,54,0.00,,SCT070,0.00,VWS V14.01,2013-07-15 23:28:00,
2013-07-15 18:30:00,86.3,63.1,30.14,South,172,8.0,16.0,46,0.00,,,0.00,VWS V15.00,2013-07-15 23:30:00,
2013-07-15 18:34:00,84.5,66.6,30.14,SSE,159,6.0,10.0,55,0.00,,SCT070,0.00,VWS V14.01,2013-07-15 23:34:00,
2013-07-15 18:41:00,84.3,66.4,30.14,SSE,156,9.0,12.0,55,0.00,,SCT050,0.00,VWS V14.01,2013-07-15 23:41:00,
2013-07-15 18:45:00,86.5,65.7,30.14,SE,146,9.0,16.0,50,0.00,,,0.00,VWS V15.00,2013-07-15 23:45:00,
2013-07-15 18:46:00,84.3,66.4,30.14,SSE,160,10.0,12.0,55,0.00,,SCT050,0.00,VWS V14.01,2013-07-15 23:46:00,
2013-07-15 18:51:00,84.1,66.2,30.14,SSE,162,6.0,11.0,55,0.00,,SCT050,0.00,VWS V14.01,2013-07-15 23:51:00,
2013-07-15 18:57:00,84.0,66.1,30.14,SSE,163,5.0,11.0,55,0.00,,SCT050,0.00,VWS V14.01,2013-07-15 23:57:00,
2013-07-15 19:00:00,85.5,66.4,30.14,SE,142,11.0,14.0,53,0.00,,,0.00,VWS V15.00,2013-07-16 00:00:00,
2013-07-15 19:03:00,83.8,66.4,30.14,SSE,165,7.0,7.0,56,0.00,,SCT050,0.00,VWS V14.01,2013-07-16 00:03:00,
2013-07-15 19:08:00,83.8,65.4,30.14,South,174,7.0,9.0,54,0.00,,SCT050,0.00,VWS V14.01,2013-07-16 00:08:00,
2013-07-15 19:14:00,83.6,65.2,30.14,South,191,6.0,10.0,54,0.00,,CLR,0.00,VWS V14.01,2013-07-16 00:14:00,
2013-07-15 19:15:00,84.9,65.3,30.14,SSE,156,9.0,16.0,52,0.00,,,0.00,VWS V15.00,2013-07-16 00:15:00,
2013-07-15 19:19:00,83.6,65.2,30.13,South,183,5.0,8.0,54,0.00,,CLR,0.00,VWS V14.01,2013-07-16 00:19:00,
2013-07-15 19:26:00,83.2,65.9,30.13,South,182,6.0,8.0,56,0.00,,CLR,0.00,VWS V14.01,2013-07-16 00:26:00,
2013-07-15 19:30:00,84.5,66.6,30.14,SSE,153,10.0,12.0,55,0.00,,,0.00,VWS V15.00,2013-07-16 00:30:00,
2013-07-15 19:31:00,82.8,67.0,30.13,South,182,4.0,8.0,59,0.00,,CLR,0.00,VWS V14.01,2013-07-16 00:31:00,
2013-07-15 19:37:00,82.4,67.6,30.13,South,182,4.0,5.0,61,0.00,,CLR,0.00,VWS V14.01,2013-07-16 00:37:00,
2013-07-15 19:43:00,81.8,68.4,30.13,South,182,4.0,5.0,64,0.00,,CLR,0.00,VWS V14.01,2013-07-16 00:43:00,
2013-07-15 19:45:00,84.3,66.4,30.14,SSE,162,11.0,12.0,55,0.00,,,0.00,VWS V15.00,2013-07-16 00:45:00,
2013-07-15 19:48:00,81.6,69.2,30.12,South,182,4.0,5.0,66,0.00,,CLR,0.00,VWS V14.01,2013-07-16 00:48:00,
2013-07-15 19:53:00,81.1,69.6,30.12,South,182,4.0,5.0,68,0.00,,CLR,0.00,VWS V14.01,2013-07-16 00:53:00,
2013-07-15 20:00:00,83.8,67.0,30.14,SSE,163,6.0,11.0,57,0.00,,,0.00,VWS V15.00,2013-07-16 01:00:00,
2013-07-15 20:02:00,80.1,69.4,30.13,South,182,4.0,5.0,70,0.00,,CLR,0.00,VWS V14.01,2013-07-16 01:02:00,
2013-07-15 20:07:00,79.8,69.6,30.13,South,182,5.0,6.0,71,0.00,,CLR,0.00,VWS V14.01,2013-07-16 01:07:00,
2013-07-15 20:13:00,79.4,69.6,30.13,South,181,6.0,6.0,72,0.00,,CLR,0.00,VWS V14.01,2013-07-16 01:13:00,
2013-07-15 20:15:00,83.6,65.2,30.13,South,191,4.0,10.0,54,0.00,,,0.00,VWS V15.00,2013-07-16 01:15:00,
2013-07-15 20:18:00,79.2,69.4,30.13,South,180,4.0,6.0,72,0.00,,CLR,0.00,VWS V14.01,2013-07-16 01:18:00,
2013-07-15 20:24:00,78.8,69.0,30.13,South,180,5.0,6.0,72,0.00,,CLR,0.00,VWS V14.01,2013-07-16 01:24:00,
2013-07-15 20:29:00,78.5,69.5,30.13,South,180,6.0,6.0,74,0.00,,CLR,0.00,VWS V14.01,2013-07-16 01:29:00,
2013-07-15 20:30:00,82.8,67.0,30.13,South,182,4.0,8.0,59,0.00,,,0.00,VWS V15.00,2013-07-16 01:30:00,
2013-07-15 20:34:00,77.9,68.9,30.12,South,180,4.0,6.0,74,0.00,,CLR,0.00,VWS V14.01,2013-07-16 01:34:00,
2013-07-15 20:39:00,77.6,69.1,30.12,South,179,7.0,7.0,75,0.00,,CLR,0.00,VWS V14.01,2013-07-16 01:39:00,
2013-07-15 20:45:00,77.2,68.7,30.12,SSE,168,6.0,10.0,75,0.00,,CLR,0.00,VWS V14.01,2013-07-16 01:45:00,
2013-07-15 20:50:00,76.7,68.2,30.13,SSE,165,6.0,8.0,75,0.00,,CLR,0.00,VWS V14.01,2013-07-16 01:50:00,
2013-07-15 20:55:00,76.5,68.0,30.13,SSE,163,7.0,9.0,75,0.00,,CLR,0.00,VWS V14.01,2013-07-16 01:55:00,
2013-07-15 21:00:00,76.3,67.8,30.13,SSE,156,7.0,10.0,75,0.00,,CLR,0.00,VWS V14.01,2013-07-16 02:00:00,
2013-07-15 21:05:00,76.3,67.0,30.13,SSE,151,9.0,10.0,73,0.00,,CLR,0.00,VWS V14.01,2013-07-16 02:05:00,
2013-07-15 21:10:00,76.7,66.6,30.13,SSE,147,7.0,11.0,71,0.00,,CLR,0.00,VWS V14.01,2013-07-16 02:10:00,
2013-07-15 21:15:00,77.0,66.9,30.13,SE,146,10.0,11.0,71,0.00,,CLR,0.00,VWS V14.01,2013-07-16 02:15:00,
2013-07-15 21:21:00,77.0,66.9,30.12,SE,145,6.0,11.0,71,0.00,,CLR,0.00,VWS V14.01,2013-07-16 02:21:00,
2013-07-15 21:27:00,76.8,66.7,30.12,SE,144,6.0,11.0,71,0.00,,CLR,0.00,VWS V14.01,2013-07-16 02:27:00,
2013-07-15 21:30:00,78.3,69.3,30.12,South,180,4.0,7.0,74,0.00,,,0.00,VWS V15.00,2013-07-16 02:30:00,
2013-07-15 21:32:00,76.8,67.1,30.13,SE,142,10.0,12.0,72,0.00,,CLR,0.00,VWS V14.01,2013-07-16 02:32:00,
2013-07-15 21:37:00,77.0,66.9,30.13,SE,142,5.0,13.0,71,0.00,,CLR,0.00,VWS V14.01,2013-07-16 02:37:00,
2013-07-15 21:45:00,77.4,66.9,30.13,SE,140,10.0,13.0,70,0.00,,CLR,0.00,VWS V14.01,2013-07-16 02:45:00,
2013-07-15 21:51:00,77.2,66.7,30.13,SE,138,10.0,12.0,70,0.00,,CLR,0.00,VWS V14.01,2013-07-16 02:51:00,
2013-07-15 21:57:00,77.0,66.5,30.13,SE,139,9.0,12.0,70,0.00,,CLR,0.00,VWS V14.01,2013-07-16 02:57:00,
2013-07-15 22:00:00,76.3,67.8,30.13,SSE,155,6.0,10.0,75,0.00,,,0.00,VWS V15.00,2013-07-16 03:00:00,
2013-07-15 22:02:00,76.8,66.7,30.12,SE,139,11.0,11.0,71,0.00,,CLR,0.00,VWS V14.01,2013-07-16 03:02:00,
2013-07-15 22:07:00,76.5,66.8,30.12,SE,138,9.0,13.0,72,0.00,,CLR,0.00,VWS V14.01,2013-07-16 03:07:00,
2013-07-15 22:12:00,76.3,66.6,30.12,SE,140,12.0,13.0,72,0.00,,CLR,0.00,VWS V14.01,2013-07-16 03:12:00,
2013-07-15 22:15:00,77.0,66.9,30.12,SE,145,11.0,11.0,71,0.00,,,0.00,VWS V15.00,2013-07-16 03:15:00,
2013-07-15 22:17:00,76.3,66.6,30.12,SE,142,14.0,14.0,72,0.00,,CLR,0.00,VWS V14.01,2013-07-16 03:17:00,
2013-07-15 22:22:00,76.3,66.6,30.12,SE,142,11.0,14.0,72,0.00,,CLR,0.00,VWS V14.01,2013-07-16 03:22:00,
2013-07-15 22:29:00,76.3,66.6,30.12,SE,142,11.0,14.0,72,0.00,,CLR,0.00,VWS V14.01,2013-07-16 03:29:00,
2013-07-15 22:30:00,76.8,67.1,30.13,SE,142,10.0,12.0,72,0.00,,,0.00,VWS V15.00,2013-07-16 03:30:00,
2013-07-15 22:34:00,76.1,66.4,30.12,SE,144,10.0,14.0,72,0.00,,CLR,0.00,VWS V14.01,2013-07-16 03:34:00,
2013-07-15 22:41:00,76.1,66.4,30.12,SE,143,13.0,14.0,72,0.00,,SCT080,0.00,VWS V14.01,2013-07-16 03:41:00,
2013-07-15 22:45:00,77.4,66.9,30.13,SE,139,9.0,13.0,70,0.00,,,0.00,VWS V15.00,2013-07-16 03:45:00,
2013-07-15 22:47:00,76.3,66.6,30.12,SE,144,11.0,14.0,72,0.00,,SCT080,0.00,VWS V14.01,2013-07-16 03:47:00,
2013-07-15 22:53:00,76.3,66.6,30.12,SE,146,11.0,15.0,72,0.00,,CLR,0.00,VWS V14.01,2013-07-16 03:53:00,
2013-07-15 22:58:00,76.1,66.4,30.12,SSE,148,10.0,15.0,72,0.00,,CLR,0.00,VWS V14.01,2013-07-16 03:58:00,
2013-07-15 23:00:00,76.8,66.7,30.12,SE,139,10.0,13.0,71,0.00,,,0.00,VWS V15.00,2013-07-16 04:00:00,
2013-07-15 23:01:00,76.1,66.4,30.12,SE,146,11.0,15.0,72,0.00,,CLR,0.00,VWS V14.01,2013-07-16 04:01:00,
2013-07-15 23:03:00,76.1,66.4,30.12,SE,146,11.0,14.0,72,0.00,,CLR,0.00,VWS V14.01,2013-07-16 04:03:00,
2013-07-15 23:04:00,76.1,66.4,30.12,SE,146,12.0,14.0,72,0.00,,CLR,0.00,VWS V14.01,2013-07-16 04:04:00,
2013-07-15 23:05:00,76.1,66.4,30.12,SE,146,14.0,14.0,72,0.00,,CLR,0.00,VWS V14.01,2013-07-16 04:05:00,
2013-07-15 23:10:00,76.3,66.6,30.12,SE,146,11.0,14.0,72,0.00,,CLR,0.00,VWS V14.01,2013-07-16 04:10:00,
2013-07-15 23:15:00,76.1,66.8,30.12,SE,146,10.0,15.0,73,0.00,,CLR,0.00,VWS V14.01,2013-07-16 04:15:00,
2013-07-15 23:20:00,76.1,66.8,30.12,SE,146,11.0,13.0,73,0.00,,CLR,0.00,VWS V14.01,2013-07-16 04:20:00,
2013-07-15 23:21:00,76.1,66.8,30.12,SE,146,10.0,13.0,73,0.00,,CLR,0.00,VWS V14.01,2013-07-16 04:21:00,
2013-07-15 23:26:00,76.1,66.8,30.12,SSE,149,10.0,13.0,73,0.00,,CLR,0.00,VWS V14.01,2013-07-16 04:26:00,
2013-07-15 23:30:00,76.1,66.4,30.12,SE,142,14.0,14.0,72,0.00,,,0.00,VWS V15.00,2013-07-16 04:30:00,
2013-07-15 23:31:00,76.0,67.1,30.12,SSE,150,10.0,13.0,74,0.00,,CLR,0.00,VWS V14.01,2013-07-16 04:31:00,
2013-07-15 23:36:00,75.8,66.9,30.12,SSE,151,10.0,14.0,74,0.00,,CLR,0.00,VWS V14.01,2013-07-16 04:36:00,
2013-07-15 23:41:00,75.8,67.3,30.12,SSE,149,9.0,14.0,75,0.00,,CLR,0.00,VWS V14.01,2013-07-16 04:41:00,
2013-07-15 23:45:00,76.3,66.6,30.12,SE,144,11.0,14.0,72,0.00,,,0.00,VWS V15.00,2013-07-16 04:45:00,
2013-07-15 23:46:00,75.4,66.9,30.12,SSE,151,12.0,14.0,75,0.00,,CLR,0.00,VWS V14.01,2013-07-16 04:46:00,
2013-07-15 23:51:00,75.3,67.2,30.12,SSE,149,11.0,13.0,76,0.00,,CLR,0.00,VWS V14.01,2013-07-16 04:51:00,
2013-07-15 23:56:00,75.1,67.0,30.12,SSE,147,8.0,13.0,76,0.00,,CLR,0.00,VWS V14.01,2013-07-16 04:56:00,